Monday, November 24, 2014, 1:33 AM EST

KOFP, Hanover County Municipal

Location: Ashland, VA, United States Lat: 37.7
Local Time: 1:33 AM EST ( 6:33 GMT) Lon: -77.433
Time Zone: US/Eastern Elev: 203 ft

Show me the last for .
Show Decoded

2014-11-24 00:54 METAR KOFP 240554Z AUTO 17012KT 4SM -RA BR OVC007 16/16 A2975 RMK AO2 CIG
                 005V011 SLP071 P0008 60037 T01610156 10161 20106 $ =
2014-11-24 00:04 METAR KOFP 240504Z AUTO 15009G18KT 6SM -RA BR OVC008 16/15 A2978 RMK AO2 CIG
                 006V012 P0001 T01560150 $ =
2014-11-23 23:54 METAR KOFP 240454Z AUTO 15010G19KT 9SM -RA 16/15 A2979 RMK AO2 RAB52 SLP087
                 P0008 T01560150 401560011 $ =
2014-11-23 22:54 METAR KOFP 240354Z AUTO 13009G16KT 3SM +RA BR OVC007 14/14 A2984 RMK AO2 SLP104
                 P0015 T01440139 =
2014-11-23 22:16 METAR KOFP 240316Z AUTO VRB05KT 6SM -RA BR BKN009 OVC015 14/13 A2988 RMK AO2 CIG
                 006V012 P0001 T01390128 =
2014-11-23 21:39 METAR KOFP 240239Z AUTO 10005KT 4SM RA BR BKN008 BKN012 OVC031 13/12 A2990 RMK
                 AO2 RAB0157 PRESFR P0005 T01280122 =
2014-11-23 21:20 METAR KOFP 240220Z AUTO VRB06KT 6SM -RA BR BKN010 BKN024 OVC033 13/12 A2993 RMK
                 AO2 RAB0157 CIG 005V015 P0002 T01280122 =
2014-11-23 21:06 METAR KOFP 240206Z AUTO VRB04KT 7SM -RA SCT008 BKN026 OVC033 12/12 A2994 RMK AO2
                 RAB0157 PRESFR P0000 T01220117 =
2014-11-23 20:54 METAR KOFP 240154Z AUTO VRB03KT 7SM SCT008 BKN035 OVC049 12/12 A2996 RMK AO2
                 RAE09 SLP145 P0000 T01220117 =
2014-11-23 20:47 METAR KOFP 240147Z AUTO 12005KT 6SM BR SCT006 BKN037 OVC049 12/11 A2996 RMK AO2
                 RAE09 P0000 T01220111 =
2014-11-23 20:00 METAR KOFP 240100Z AUTO 00000KT 5SM -RA BR BKN007 OVC010 12/11 A3000 RMK AO2
                 P0000 T01170106 =
2014-11-23 19:54 METAR KOFP 240054Z AUTO 10003KT 2 1/2SM -RA BR BKN010 OVC014 12/11 A3000 RMK AO2
                 RAB47 CIG 007V013 SLP160 P0001 T01170106 =
2014-11-23 19:52 METAR KOFP 240052Z AUTO VRB03KT 2 1/2SM -RA BR SCT007 OVC012 12/11 A3000 RMK AO2
                 RAB47 P0001 =
2014-11-23 19:30 METAR KOFP 240030Z AUTO VRB03KT 8SM BKN013 BKN024 OVC033 11/09 A3001 RMK AO2
                 T01110094 =
2014-11-23 18:08 METAR KOFP 232308Z AUTO 09003KT 9SM BKN024 OVC038 11/09 A3006 RMK AO2 T01110089
                 =
2014-11-23 17:54 METAR KOFP 232254Z AUTO 00000KT 9SM FEW028 BKN036 OVC044 11/09 A3006 RMK AO2
                 RAB05E48 SLP180 P0000 T01060089 =
2014-11-23 16:54 METAR KOFP 232154Z AUTO 00000KT 10SM BKN030 BKN037 OVC048 13/07 A3009 RMK AO2
                 SLP189 T01280072 =
2014-11-23 15:54 METAR KOFP 232054Z AUTO 00000KT 10SM OVC050 13/07 A3011 RMK AO2 SLP196 T01330072
                 56023 =
2014-11-23 14:54 METAR KOFP 231954Z AUTO 12003KT 10SM CLR 13/06 A3012 RMK AO2 SLP199 T01330061 =
2014-11-23 13:54 METAR KOFP 231854Z AUTO 16005KT 10SM CLR 13/06 A3014 RMK AO2 SLP207 T01330061 =
2014-11-23 12:54 METAR KOFP 231754Z AUTO 21006KT 10SM CLR 13/04 A3018 RMK AO2 SLP219 T01330044
                 10133 20033 58025 =
2014-11-23 10:54 METAR KOFP 231554Z AUTO 18004KT 10SM CLR 10/M03 A3024 RMK AO2 SLP241 T01001028 =
2014-11-23 09:54 METAR KOFP 231454Z AUTO 18004KT 10SM CLR 08/M04 A3025 RMK AO2 SLP244 T00831039
                 57004 =
2014-11-23 08:54 METAR KOFP 231354Z AUTO 19005KT 10SM CLR 07/M05 A3026 RMK AO2 SLP246 T00721050 =
2014-11-23 07:54 METAR KOFP 231254Z AUTO 16004KT 10SM CLR 04/M04 A3026 RMK AO2 SLP248 T00441039 =
2014-11-23 06:54 METAR KOFP 231154Z AUTO 18005KT 10SM CLR 05/M07 A3027 RMK AO2 SLP250 T00501067
                 10050 20011 56002 =
2014-11-23 05:54 METAR KOFP 231054Z AUTO 20005KT 10SM CLR 04/M07 A3027 RMK AO2 SLP251 T00391072 =
2014-11-23 04:54 METAR KOFP 230954Z AUTO 20004KT 10SM CLR 03/M08 A3026 RMK AO2 SLP248 T00331078 =
2014-11-23 03:54 METAR KOFP 230854Z AUTO 18006KT 10SM CLR 02/M08 A3027 RMK AO2 SLP250 T00171078
                 58008 =
2014-11-23 02:54 METAR KOFP 230754Z AUTO 18004KT 10SM CLR 03/M08 A3029 RMK AO2 SLP256 T00281083 =
2014-11-23 01:54 METAR KOFP 230654Z AUTO 17006KT 10SM CLR 02/M08 A3029 RMK AO2 SLP258 T00221078 =

Support USWX by starting your Amazon purchase here.